Time;durP1;ratioP1;P1;durP2;ratioP2;P2;SDS_P1;SDS_P2;PMS_P1;PMS_P2;Temp;Humidity;BMP_temperature;BMP_pressure;BME280_temperature;BME280_humidity;BME280_pressure;Samples;Min_cycle;Max_cycle;Signal;HPM_P1;HPM_P2
2021/05/05 00:02:18;;;;;;;10.17;3.47;;;8.80;79.90;;;;;;5021559;28;20025;-92
2021/05/05 00:04:44;;;;;;;9.27;2.57;;;8.80;80.10;;;;;;5022252;28;20040;-89
2021/05/05 00:07:10;;;;;;;9.60;2.60;;;8.80;79.80;;;;;;5021121;28;20032;-91
2021/05/05 00:09:35;;;;;;;7.23;2.63;;;8.80;80.40;;;;;;5020748;28;20018;-91
2021/05/05 00:12:01;;;;;;;9.87;2.67;;;8.80;80.00;;;;;;5021766;28;20036;-91
2021/05/05 00:14:26;;;;;;;8.03;2.53;;;8.80;80.00;;;;;;5023722;28;20490;-91
2021/05/05 00:16:52;;;;;;;9.97;2.60;;;8.80;79.90;;;;;;5023122;28;20034;-91
2021/05/05 00:19:18;;;;;;;11.20;2.40;;;8.70;80.20;;;;;;5022565;28;20069;-91
2021/05/05 00:21:44;;;;;;;6.50;2.50;;;8.60;80.30;;;;;;5022741;28;20033;-89
2021/05/05 00:24:11;;;;;;;4.73;2.50;;;8.60;80.00;;;;;;5022919;28;20056;-90
2021/05/05 00:26:37;;;;;;;8.83;2.00;;;8.60;80.20;;;;;;5022248;28;20025;-90
2021/05/05 00:29:03;;;;;;;5.57;1.87;;;8.70;79.30;;;;;;5022355;28;20030;-89
2021/05/05 00:31:29;;;;;;;5.50;1.90;;;8.60;79.50;;;;;;5022875;28;20045;-90
2021/05/05 00:33:54;;;;;;;6.63;1.93;;;8.60;79.90;;;;;;5038553;28;20024;-90
2021/05/05 00:36:20;;;;;;;6.37;1.80;;;8.60;80.00;;;;;;5042378;28;20025;-90
2021/05/05 00:38:46;;;;;;;9.37;1.90;;;8.60;79.60;;;;;;5041211;28;20124;-90
2021/05/05 00:41:12;;;;;;;4.93;1.70;;;8.50;79.80;;;;;;5038983;28;20025;-91
2021/05/05 00:43:38;;;;;;;13.80;2.23;;;8.40;80.00;;;;;;5036884;28;20539;-90
2021/05/05 00:46:05;;;;;;;6.60;1.87;;;8.50;79.90;;;;;;5037644;28;20029;-91
2021/05/05 00:48:31;;;;;;;7.63;2.00;;;8.50;79.80;;;;;;5038508;28;20025;-91
2021/05/05 00:50:58;;;;;;;6.90;1.80;;;8.50;79.80;;;;;;5039039;28;20021;-91
2021/05/05 00:53:24;;;;;;;7.07;1.70;;;8.50;79.80;;;;;;5058276;28;20025;-91
2021/05/05 00:55:50;;;;;;;4.93;1.67;;;8.50;79.60;;;;;;5040657;28;20025;-92
2021/05/05 00:58:17;;;;;;;6.57;1.70;;;8.50;79.80;;;;;;5041711;28;20025;-91
2021/05/05 01:00:47;;;;;;;6.43;1.80;;;8.40;79.80;;;;;;5042933;28;20029;-90
2021/05/05 01:03:13;;;;;;;5.63;1.67;;;8.50;79.80;;;;;;5048136;28;20025;-91
2021/05/05 01:05:39;;;;;;;8.10;2.20;;;8.50;79.80;;;;;;5051508;28;20059;-92
2021/05/05 01:08:07;;;;;;;9.83;1.70;;;8.50;79.80;;;;;;5059003;28;20025;-92
2021/05/05 01:10:32;;;;;;;6.53;1.90;;;8.50;79.70;;;;;;5058007;28;20116;-92
2021/05/05 01:12:58;;;;;;;8.30;1.87;;;8.40;80.20;;;;;;5059758;28;20009;-92
2021/05/05 01:15:24;;;;;;;10.17;2.10;;;8.40;80.40;;;;;;5048505;28;20032;-92
2021/05/05 01:17:49;;;;;;;8.17;2.47;;;8.30;80.70;;;;;;5037667;28;20021;-92
2021/05/05 01:20:15;;;;;;;9.43;2.30;;;8.20;81.00;;;;;;5037452;28;20025;-91
2021/05/05 01:22:44;;;;;;;6.70;1.93;;;8.20;81.30;;;;;;5037602;28;20493;-91
2021/05/05 01:25:13;;;;;;;10.23;2.67;;;8.20;81.40;;;;;;5037382;28;20040;-93
2021/05/05 01:27:41;;;;;;;6.95;2.03;;;8.20;81.50;;;;;;5037252;28;20029;-91
2021/05/05 01:30:08;;;;;;;8.57;2.40;;;8.20;82.40;;;;;;5037096;28;20406;-90
2021/05/05 01:32:34;;;;;;;7.07;1.60;;;8.10;82.90;;;;;;5036725;28;20033;-91
2021/05/05 01:35:00;;;;;;;7.43;1.80;;;8.10;82.80;;;;;;5036781;28;20434;-92
2021/05/05 01:37:26;;;;;;;5.77;1.57;;;8.00;83.00;;;;;;5036939;28;20028;-91
2021/05/05 01:39:52;;;;;;;4.73;1.40;;;7.90;84.50;;;;;;5037144;28;20047;-91
2021/05/05 01:42:17;;;;;;;5.07;1.47;;;7.90;83.70;;;;;;5036412;28;20120;-92
2021/05/05 01:44:43;;;;;;;7.63;1.83;;;7.80;83.80;;;;;;5036486;28;20498;-90
2021/05/05 01:47:10;;;;;;;2.97;1.40;;;7.80;83.80;;;;;;5036641;28;20033;-91
2021/05/05 01:49:44;;;;;;;6.87;1.80;;;7.80;85.20;;;;;;5036963;28;20025;-91
2021/05/05 01:52:11;;;;;;;4.30;1.70;;;7.70;84.40;;;;;;5036730;28;20024;-91
2021/05/05 01:54:37;;;;;;;4.00;1.70;;;7.60;84.80;;;;;;5036955;28;20025;-91
2021/05/05 01:57:22;;;;;;;5.90;2.07;;;7.60;84.60;;;;;;5036614;28;20542;-92
2021/05/05 01:59:49;;;;;;;8.57;2.30;;;7.60;84.50;;;;;;5036506;28;20479;-91
2021/05/05 02:02:15;;;;;;;7.73;2.47;;;7.60;85.20;;;;;;5036350;28;20025;-91
2021/05/05 02:04:40;;;;;;;7.07;2.40;;;7.60;85.20;;;;;;5036684;28;20052;-91
2021/05/05 02:07:06;;;;;;;5.20;2.30;;;7.60;84.80;;;;;;5036211;28;20029;-91
2021/05/05 02:09:32;;;;;;;9.20;3.50;;;7.60;84.40;;;;;;5036651;28;20470;-91
2021/05/05 02:11:57;;;;;;;9.30;2.70;;;7.60;84.40;;;;;;5036050;28;20021;-91
2021/05/05 02:14:23;;;;;;;7.27;2.50;;;7.70;84.80;;;;;;5035831;28;20024;-91
2021/05/05 02:17:02;;;;;;;5.73;2.50;;;7.70;84.40;;;;;;5036987;28;20044;-91
2021/05/05 02:19:28;;;;;;;;;;;7.70;84.50;;;;;;5037597;28;20478;-91
2021/05/05 02:21:53;;;;;;;6.50;2.20;;;7.70;84.60;;;;;;5037765;28;19916;-91
2021/05/05 02:24:19;;;;;;;7.83;2.33;;;7.70;84.40;;;;;;5037724;28;20550;-91
2021/05/05 02:26:45;;;;;;;7.73;2.17;;;7.70;84.90;;;;;;5038977;28;20021;-91
2021/05/05 02:29:10;;;;;;;6.33;2.23;;;7.70;84.70;;;;;;5038025;28;20071;-91
2021/05/05 02:31:36;;;;;;;10.47;2.83;;;7.70;84.70;;;;;;5036867;28;20040;-91
2021/05/05 02:34:02;;;;;;;11.13;2.70;;;7.70;84.90;;;;;;5036043;28;20040;-91
2021/05/05 02:36:30;;;;;;;9.73;2.50;;;7.70;85.00;;;;;;5035801;28;20029;-91
2021/05/05 02:38:56;;;;;;;10.70;2.60;;;7.70;85.50;;;;;;5035792;28;20057;-91
2021/05/05 02:41:22;;;;;;;12.13;3.63;;;7.70;85.40;;;;;;5035748;28;20039;-91
2021/05/05 02:43:47;;;;;;;10.93;2.60;;;7.70;85.30;;;;;;5035625;28;20124;-92
2021/05/05 02:46:13;;;;;;;12.60;2.80;;;7.70;86.00;;;;;;5035848;28;20025;-91
2021/05/05 02:48:38;;;;;;;12.87;2.67;;;7.60;86.20;;;;;;5035561;28;20493;-91
2021/05/05 02:51:04;;;;;;;13.87;2.77;;;7.60;86.30;;;;;;5035492;28;20036;-91
2021/05/05 02:53:30;;;;;;;9.80;2.27;;;7.60;86.00;;;;;;5035209;28;20029;-92
2021/05/05 02:55:56;;;;;;;12.77;2.50;;;7.50;85.90;;;;;;5035627;28;20057;-91
2021/05/05 02:58:21;;;;;;;11.73;2.50;;;7.50;86.40;;;;;;5035390;28;20036;-91
2021/05/05 03:00:47;;;;;;;9.70;2.37;;;7.50;86.60;;;;;;5035319;28;20028;-91
2021/05/05 03:03:12;;;;;;;11.93;2.20;;;7.50;85.90;;;;;;5035141;28;20086;-91
2021/05/05 03:05:38;;;;;;;8.20;2.00;;;7.50;86.10;;;;;;5035080;28;20021;-91
2021/05/05 03:08:04;;;;;;;7.43;1.70;;;7.40;87.10;;;;;;5036112;28;20029;-91
2021/05/05 03:10:29;;;;;;;6.00;1.70;;;7.40;86.60;;;;;;5035548;28;20048;-91
2021/05/05 03:12:55;;;;;;;7.03;2.00;;;7.40;86.40;;;;;;5036067;28;20132;-92
2021/05/05 03:15:20;;;;;;;6.40;1.93;;;7.30;86.80;;;;;;5035868;28;20040;-91
2021/05/05 03:17:46;;;;;;;6.40;1.70;;;7.30;86.60;;;;;;5036512;28;20123;-91
2021/05/05 03:20:12;;;;;;;6.23;2.30;;;7.30;86.40;;;;;;5036056;28;20437;-91
2021/05/05 03:22:38;;;;;;;10.27;2.10;;;7.20;86.60;;;;;;5035161;28;20506;-92
2021/05/05 03:25:08;;;;;;;9.03;1.87;;;7.30;86.80;;;;;;5035763;28;20041;-91
2021/05/05 03:27:34;;;;;;;9.37;2.10;;;7.20;86.60;;;;;;5035801;28;20572;-91
2021/05/05 03:30:01;;;;;;;7.80;1.90;;;7.30;86.90;;;;;;5035844;28;20076;-91
2021/05/05 03:32:26;;;;;;;9.77;2.13;;;7.20;87.20;;;;;;5035767;28;20433;-91
2021/05/05 03:34:52;;;;;;;10.70;2.20;;;7.20;86.70;;;;;;5036342;28;20104;-91
2021/05/05 03:37:18;;;;;;;10.23;2.30;;;7.20;86.90;;;;;;5037112;28;20025;-91
2021/05/05 03:39:43;;;;;;;9.43;2.03;;;7.20;86.80;;;;;;5040310;28;20387;-91
2021/05/05 03:42:09;;;;;;;10.60;2.90;;;7.20;86.80;;;;;;5036010;28;20040;-92
2021/05/05 03:44:35;;;;;;;7.93;2.03;;;7.30;86.80;;;;;;5035715;28;20028;-91
2021/05/05 03:47:00;;;;;;;9.60;2.40;;;7.30;86.60;;;;;;5043639;28;20032;-91
2021/05/05 03:49:26;;;;;;;10.93;2.53;;;7.30;86.90;;;;;;5057247;28;20028;-92
2021/05/05 03:51:52;;;;;;;12.33;2.67;;;7.30;86.80;;;;;;5058565;28;20033;-93
2021/05/05 03:54:18;;;;;;;12.70;2.43;;;7.30;86.90;;;;;;5058793;28;20009;-92
2021/05/05 03:56:45;;;;;;;13.00;2.47;;;7.30;86.90;;;;;;5050556;28;20140;-92
2021/05/05 03:59:11;;;;;;;9.77;2.27;;;7.20;87.10;;;;;;5035737;28;20029;-92
2021/05/05 04:01:36;;;;;;;10.33;2.40;;;7.30;87.00;;;;;;5035726;28;20055;-91
2021/05/05 04:04:02;;;;;;;13.40;2.80;;;7.30;86.60;;;;;;5034734;28;20029;-91
2021/05/05 04:06:28;;;;;;;12.27;2.47;;;7.20;86.80;;;;;;5035040;28;20032;-91
2021/05/05 04:08:53;;;;;;;13.30;2.90;;;7.20;86.90;;;;;;5035517;28;20190;-91
2021/05/05 04:11:19;;;;;;;10.73;2.70;;;7.20;86.80;;;;;;5042479;28;20035;-92
2021/05/05 04:13:45;;;;;;;12.57;2.60;;;7.20;86.90;;;;;;5056907;28;20305;-92
2021/05/05 04:16:10;;;;;;;16.73;2.97;;;7.10;87.30;;;;;;5056739;28;20173;-91
2021/05/05 04:18:36;;;;;;;13.77;3.20;;;7.20;87.20;;;;;;5051910;28;20037;-91
2021/05/05 04:21:17;;;;;;;11.10;2.87;;;7.20;87.00;;;;;;5039928;28;20071;-92
2021/05/05 04:23:42;;;;;;;16.13;2.70;;;7.30;86.80;;;;;;5036011;28;20498;-91
2021/05/05 04:26:09;;;;;;;9.63;2.60;;;7.20;86.70;;;;;;5036823;28;20029;-91
2021/05/05 04:28:36;;;;;;;15.33;2.77;;;7.30;86.80;;;;;;5036391;28;20083;-92
2021/05/05 04:31:02;;;;;;;13.90;2.80;;;7.30;86.10;;;;;;5035920;28;20021;-92
2021/05/05 04:33:28;;;;;;;14.33;3.07;;;7.30;86.60;;;;;;5036730;28;20025;-91
2021/05/05 04:35:53;;;;;;;11.53;2.60;;;7.30;86.30;;;;;;5036794;28;20028;-91
2021/05/05 04:38:19;;;;;;;11.37;2.93;;;7.20;86.30;;;;;;5039993;28;20036;-92
2021/05/05 04:40:44;;;;;;;10.23;2.50;;;7.20;86.20;;;;;;5041020;28;20088;-92
2021/05/05 04:43:10;;;;;;;13.30;2.63;;;7.30;86.10;;;;;;5042144;28;20025;-91
2021/05/05 04:45:36;;;;;;;11.83;2.87;;;7.30;86.10;;;;;;5042309;28;20029;-92
2021/05/05 04:48:01;;;;;;;12.00;2.80;;;7.30;85.70;;;;;;5040750;28;20025;-91
2021/05/05 04:50:27;;;;;;;10.77;2.03;;;7.40;85.40;;;;;;5040047;28;20055;-91
2021/05/05 04:52:53;;;;;;;11.07;2.43;;;7.40;85.20;;;;;;5040107;28;20466;-91
2021/05/05 04:55:19;;;;;;;12.10;2.43;;;7.30;85.20;;;;;;5039070;28;20051;-91
2021/05/05 04:57:45;;;;;;;14.13;2.50;;;7.40;84.80;;;;;;5039945;28;20021;-92
2021/05/05 05:00:11;;;;;;;13.30;2.33;;;7.30;84.90;;;;;;5041500;28;20433;-91
2021/05/05 05:02:37;;;;;;;14.97;2.30;;;7.30;85.20;;;;;;5042678;28;20025;-93
2021/05/05 05:05:04;;;;;;;12.57;2.60;;;7.30;85.10;;;;;;5042078;28;20104;-91
2021/05/05 05:07:32;;;;;;;13.70;2.50;;;7.30;85.00;;;;;;5045072;28;20017;-92
2021/05/05 05:09:58;;;;;;;12.60;2.67;;;7.30;84.90;;;;;;5041863;28;20017;-92
2021/05/05 05:12:24;;;;;;;10.23;2.33;;;7.30;84.80;;;;;;5045796;28;20032;-92
2021/05/05 05:14:51;;;;;;;10.33;2.37;;;7.30;84.80;;;;;;5043649;28;20429;-89
2021/05/05 05:17:18;;;;;;;14.30;2.80;;;7.40;84.90;;;;;;5041048;28;20029;-91
2021/05/05 05:19:44;;;;;;;13.97;2.40;;;7.40;84.80;;;;;;5038743;28;20067;-90
2021/05/05 05:22:10;;;;;;;13.53;2.67;;;7.40;84.90;;;;;;5040648;28;20029;-93
2021/05/05 05:24:35;;;;;;;17.23;2.33;;;7.40;85.00;;;;;;5042064;28;20029;-92
2021/05/05 05:27:01;;;;;;;13.23;2.47;;;7.40;84.50;;;;;;5044549;28;20063;-89
2021/05/05 05:29:26;;;;;;;14.57;2.33;;;7.40;84.40;;;;;;5042813;23;20510;-89
2021/05/05 05:31:52;;;;;;;14.67;2.70;;;7.40;84.40;;;;;;5022630;28;20104;-88
2021/05/05 05:34:17;;;;;;;16.73;2.97;;;7.50;83.90;;;;;;5021170;28;20029;-86
2021/05/05 05:36:44;;;;;;;18.37;3.20;;;7.50;84.00;;;;;;5020135;28;20037;-88
2021/05/05 05:39:09;;;;;;;14.50;3.17;;;7.50;83.70;;;;;;5020982;28;20033;-89
2021/05/05 05:41:36;;;;;;;16.87;3.40;;;7.50;83.60;;;;;;5021238;28;20045;-86
2021/05/05 05:44:02;;;;;;;16.30;2.97;;;7.50;83.60;;;;;;5022461;28;20064;-86
2021/05/05 05:46:28;;;;;;;15.30;2.90;;;7.60;83.40;;;;;;5022050;28;20017;-86
2021/05/05 05:48:54;;;;;;;16.63;2.77;;;7.60;83.30;;;;;;5021714;28;20031;-88
2021/05/05 05:51:19;;;;;;;17.20;3.03;;;7.60;82.80;;;;;;5021967;28;20022;-86
2021/05/05 05:53:45;;;;;;;19.40;3.10;;;7.60;82.70;;;;;;5022260;28;20463;-86
2021/05/05 05:56:11;;;;;;;13.97;2.80;;;7.60;82.60;;;;;;5023523;28;20028;-86
2021/05/05 05:58:36;;;;;;;18.40;2.77;;;7.70;82.80;;;;;;5021943;28;20406;-85
2021/05/05 06:01:02;;;;;;;15.40;2.60;;;7.60;82.90;;;;;;5021708;28;20032;-82
2021/05/05 06:03:28;;;;;;;13.93;3.03;;;7.70;82.90;;;;;;5020368;28;20402;-89
2021/05/05 06:05:54;;;;;;;15.33;3.00;;;7.70;82.70;;;;;;5039348;28;20040;-88
2021/05/05 06:08:20;;;;;;;14.60;2.80;;;7.80;82.40;;;;;;5020693;28;20013;-87
2021/05/05 06:10:46;;;;;;;18.90;3.10;;;7.70;82.10;;;;;;5016851;28;20032;-86
2021/05/05 06:19:40;;;;;;;13.00;2.57;;;7.80;81.70;;;;;;5038008;23;20071;-89
2021/05/05 06:22:06;;;;;;;18.67;2.93;;;7.90;81.90;;;;;;5041407;28;20029;-87
2021/05/05 06:24:34;;;;;;;17.37;2.40;;;7.90;82.00;;;;;;5051518;28;20378;-92
2021/05/05 06:27:00;;;;;;;16.98;3.00;;;7.90;81.70;;;;;;5070938;28;20021;-93
2021/05/05 06:29:26;;;;;;;16.40;2.53;;;7.90;81.60;;;;;;5085818;28;20035;-92
2021/05/05 06:31:51;;;;;;;19.03;3.13;;;7.90;81.40;;;;;;5086409;28;20025;-92
2021/05/05 06:34:17;;;;;;;18.43;4.00;;;7.90;81.50;;;;;;5066192;28;20033;-89
2021/05/05 06:36:43;;;;;;;15.50;2.60;;;8.00;81.40;;;;;;5051870;28;20029;-85
2021/05/05 06:39:11;;;;;;;18.97;3.80;;;8.00;81.30;;;;;;5047560;28;20036;-82
2021/05/05 06:41:37;;;;;;;18.50;2.87;;;8.00;81.10;;;;;;5049090;28;20175;-85
2021/05/05 06:44:02;;;;;;;18.87;3.20;;;8.00;81.10;;;;;;5065238;28;20055;-85
2021/05/05 06:46:30;;;;;;;16.93;2.90;;;8.10;80.90;;;;;;5035679;28;20109;-85
2021/05/05 06:48:57;;;;;;;19.17;3.00;;;8.20;80.70;;;;;;5036781;28;20119;-83
2021/05/05 06:51:23;;;;;;;19.03;3.07;;;8.20;80.70;;;;;;5038849;28;20024;-83
2021/05/05 06:53:49;;;;;;;16.37;3.03;;;8.30;80.10;;;;;;5050916;28;20055;-83
2021/05/05 06:56:15;;;;;;;14.90;3.30;;;8.40;79.60;;;;;;5037219;28;20021;-84
2021/05/05 06:58:40;;;;;;;17.60;3.10;;;8.40;79.70;;;;;;5037341;28;20108;-92
2021/05/05 07:01:06;;;;;;;17.83;2.60;;;8.30;79.50;;;;;;5057414;28;20024;-91
2021/05/05 07:03:32;;;;;;;15.83;3.03;;;8.30;79.60;;;;;;5054087;28;20020;-90
2021/05/05 07:05:59;;;;;;;14.27;2.50;;;8.30;79.90;;;;;;5044465;28;20025;-87
2021/05/05 07:08:25;;;;;;;20.67;3.00;;;8.30;79.60;;;;;;5070734;28;20025;-88
2021/05/05 07:10:51;;;;;;;11.67;2.43;;;8.30;79.40;;;;;;5038988;28;20107;-88
2021/05/05 07:13:17;;;;;;;15.67;2.37;;;8.40;79.00;;;;;;5040628;28;20049;-90
2021/05/05 07:15:43;;;;;;;18.27;2.90;;;8.40;78.70;;;;;;5044889;28;20032;-87
2021/05/05 07:18:09;;;;;;;18.17;2.47;;;8.40;78.20;;;;;;5057296;28;20375;-89
2021/05/05 07:20:35;;;;;;;11.87;2.20;;;8.40;78.30;;;;;;5058404;28;20059;-90
2021/05/05 07:23:01;;;;;;;15.23;2.50;;;8.40;77.80;;;;;;5053865;28;20106;-86
2021/05/05 07:25:26;;;;;;;14.37;2.37;;;8.50;77.60;;;;;;5054685;28;20041;-88
2021/05/05 07:27:52;;;;;;;8.83;1.90;;;8.50;77.30;;;;;;5036058;28;20029;-89
2021/05/05 07:30:18;;;;;;;15.87;2.50;;;8.50;77.10;;;;;;5039713;28;20025;-92
2021/05/05 07:32:44;;;;;;;15.17;2.13;;;8.50;77.30;;;;;;5044189;28;20033;-90
2021/05/05 07:35:10;;;;;;;17.80;2.73;;;8.50;76.50;;;;;;5065818;28;20028;-88
2021/05/05 07:40:41;;;;;;;9.87;2.43;;;8.60;76.50;;;;;;5065496;28;20029;-90
2021/05/05 07:50:49;;;;;;;15.80;2.90;;;8.70;76.50;;;;;;5078648;28;20024;-88
2021/05/05 07:53:15;;;;;;;11.53;2.50;;;8.70;76.00;;;;;;5057475;28;20028;-88
2021/05/05 07:55:41;;;;;;;16.70;2.40;;;8.70;75.70;;;;;;5062660;28;20044;-88
2021/05/05 07:58:06;;;;;;;15.60;2.60;;;8.70;76.30;;;;;;5058730;28;20032;-91
2021/05/05 08:00:32;;;;;;;14.83;2.63;;;8.80;76.20;;;;;;5057656;28;20030;-88
2021/05/05 08:02:58;;;;;;;14.53;2.60;;;8.80;76.30;;;;;;5051131;28;20028;-89
2021/05/05 08:05:24;;;;;;;14.27;2.50;;;8.80;75.30;;;;;;5046744;28;20080;-89
2021/05/05 08:07:53;;;;;;;13.50;2.57;;;8.80;75.40;;;;;;5051227;28;20037;-87
2021/05/05 08:10:19;;;;;;;16.50;2.53;;;8.80;75.40;;;;;;5046856;28;20027;-89
2021/05/05 08:12:45;;;;;;;14.47;2.57;;;8.80;75.40;;;;;;5051812;28;20265;-84
2021/05/05 08:15:12;;;;;;;17.80;3.10;;;8.80;75.60;;;;;;5040667;28;20408;-90
2021/05/05 08:17:37;;;;;;;14.87;2.47;;;8.90;74.70;;;;;;5049522;28;20028;-87
2021/05/05 08:20:05;;;;;;;16.27;2.73;;;8.90;74.80;;;;;;5064030;28;20052;-88
2021/05/05 08:22:30;;;;;;;13.73;2.83;;;8.90;74.50;;;;;;5076987;28;20041;-86
2021/05/05 08:24:56;;;;;;;15.23;2.30;;;9.00;74.50;;;;;;5059056;28;20037;-89
2021/05/05 08:27:22;;;;;;;11.30;2.00;;;9.00;74.80;;;;;;5040663;28;20056;-87
2021/05/05 08:29:48;;;;;;;12.43;2.20;;;9.00;74.60;;;;;;5040036;28;20021;-88
2021/05/05 08:32:14;;;;;;;13.80;2.60;;;9.10;74.70;;;;;;5053095;28;20389;-88
2021/05/05 08:34:40;;;;;;;13.63;2.57;;;9.10;74.50;;;;;;5058357;28;20033;-84
2021/05/05 08:37:05;;;;;;;12.87;2.27;;;9.10;74.10;;;;;;5044351;28;20090;-85
2021/05/05 08:39:31;;;;;;;14.00;2.47;;;9.10;74.20;;;;;;5036656;28;20033;-87
2021/05/05 08:41:58;;;;;;;13.57;2.43;;;9.30;73.70;;;;;;5041907;28;20021;-87
2021/05/05 08:44:25;;;;;;;12.60;2.40;;;9.40;73.10;;;;;;5037033;28;20029;-84
2021/05/05 08:46:51;;;;;;;11.07;2.27;;;9.40;72.50;;;;;;5034765;28;20059;-85
2021/05/05 08:49:18;;;;;;;15.40;3.17;;;9.40;72.10;;;;;;5035969;28;20544;-85
2021/05/05 08:51:45;;;;;;;13.23;2.70;;;9.40;72.60;;;;;;5061235;28;20052;-86
2021/05/05 08:54:11;;;;;;;14.63;2.63;;;9.40;72.50;;;;;;5056576;28;20029;-87
2021/05/05 08:56:37;;;;;;;13.63;2.83;;;9.40;72.00;;;;;;5050122;28;20029;-87
2021/05/05 08:59:08;;;;;;;11.40;2.30;;;9.30;72.10;;;;;;5044735;28;20055;-88
2021/05/05 09:01:35;;;;;;;14.00;2.60;;;9.30;72.70;;;;;;5061524;28;20035;-88
2021/05/05 09:04:01;;;;;;;16.60;2.87;;;9.30;73.00;;;;;;5058290;28;20025;-88
2021/05/05 09:06:49;;;;;;;18.50;2.60;;;9.20;73.20;;;;;;5060054;28;20387;-88
2021/05/05 09:09:46;;;;;;;14.03;2.70;;;9.20;74.80;;;;;;5074723;28;20028;-88
2021/05/05 09:12:14;;;;;;;11.40;2.30;;;9.20;75.20;;;;;;5044930;28;20231;-88
2021/05/05 09:15:00;;;;;;;11.48;2.35;;;9.20;75.10;;;;;;5045950;28;20036;-83
2021/05/05 09:17:31;;;;;;;14.80;2.73;;;9.30;75.80;;;;;;5059648;28;20119;-83
2021/05/05 09:20:04;;;;;;;11.67;2.37;;;9.40;75.50;;;;;;5060896;28;20182;-84
2021/05/05 09:22:38;;;;;;;11.53;2.20;;;9.60;75.80;;;;;;5069660;28;20031;-82
2021/05/05 09:25:10;;;;;;;11.17;2.03;;;9.90;74.90;;;;;;5079581;28;20028;-85
2021/05/05 09:27:37;;;;;;;10.40;2.00;;;10.00;74.40;;;;;;5063331;28;20024;-86
2021/05/05 09:30:20;;;;;;;9.77;2.13;;;10.10;73.30;;;;;;5060853;28;20029;-86
2021/05/05 09:32:54;;;;;;;7.53;1.87;;;10.20;73.40;;;;;;5069553;28;20074;-86
2021/05/05 09:35:33;;;;;;;10.07;2.80;;;10.20;73.20;;;;;;5063573;28;20062;-86
2021/05/05 09:38:06;;;;;;;9.65;2.10;;;10.20;73.30;;;;;;5051653;28;20490;-85
2021/05/05 09:40:34;;;;;;;12.07;1.98;;;10.30;73.50;;;;;;5042255;28;20033;-86
2021/05/05 09:43:15;;;;;;;11.93;2.13;;;10.30;71.80;;;;;;5041329;28;20025;-86
2021/05/05 09:45:41;;;;;;;10.47;2.00;;;10.30;71.50;;;;;;5056281;28;20150;-83
2021/05/05 09:48:08;;;;;;;14.10;2.40;;;10.40;72.00;;;;;;5049361;28;20752;-86
2021/05/05 09:50:43;;;;;;;11.02;2.25;;;10.40;72.30;;;;;;5079623;28;20082;-86
2021/05/05 09:53:24;;;;;;;10.50;2.30;;;10.40;72.30;;;;;;5059948;28;20052;-86
2021/05/05 09:55:59;;;;;;;8.32;1.77;;;10.40;72.30;;;;;;5056480;28;20103;-85
2021/05/05 09:58:39;;;;;;;12.13;2.20;;;10.40;72.30;;;;;;5055093;28;20028;-89
2021/05/05 10:01:05;;;;;;;9.90;1.98;;;10.40;72.70;;;;;;5057387;28;20041;-91
2021/05/05 10:03:38;;;;;;;10.33;2.30;;;10.40;72.70;;;;;;5059426;28;20032;-92
2021/05/05 10:06:22;;;;;;;9.18;1.92;;;10.20;74.10;;;;;;5077987;28;20040;-91
2021/05/05 10:08:53;;;;;;;9.80;2.10;;;10.00;76.10;;;;;;5076847;28;20062;-89
2021/05/05 10:11:24;;;;;;;13.00;2.60;;;9.80;75.90;;;;;;5062492;28;20028;-90
2021/05/05 10:14:04;;;;;;;8.83;1.70;;;9.60;76.70;;;;;;5073022;28;20080;-90
2021/05/05 10:16:33;;;;;;;10.30;2.47;;;9.40;81.30;;;;;;5073392;28;20085;-92
2021/05/05 10:19:00;;;;;;;8.93;1.67;;;9.20;81.30;;;;;;5065013;28;20036;-87
2021/05/05 10:21:27;;;;;;;6.55;1.60;;;9.20;79.40;;;;;;5055093;28;20045;-81
2021/05/05 10:23:56;;;;;;;8.63;1.60;;;9.30;79.90;;;;;;5053594;28;20033;-82
2021/05/05 10:26:22;;;;;;;7.18;1.65;;;9.40;80.50;;;;;;5034485;28;20092;-84
2021/05/05 10:28:49;;;;;;;8.93;1.98;;;9.50;80.00;;;;;;5048108;28;20024;-86
2021/05/05 10:31:18;;;;;;;8.53;1.90;;;9.60;79.80;;;;;;5055059;28;20031;-85
2021/05/05 10:33:46;;;;;;;;;;;9.70;79.90;;;;;;5036643;28;20021;-82
2021/05/05 10:36:46;;;;;;;11.18;2.25;;;9.70;80.40;;;;;;5039158;28;19924;-83
2021/05/05 10:39:16;;;;;;;10.50;2.60;;;9.90;79.60;;;;;;5055111;28;20024;-91
2021/05/05 10:41:41;;;;;;;6.15;2.00;;;10.00;79.30;;;;;;5065932;28;20021;-90
2021/05/05 10:44:07;;;;;;;10.83;1.97;;;10.10;79.90;;;;;;5052021;28;20036;-90
2021/05/05 10:53:16;;;;;;;;;;;9.90;79.20;;;;;;5002799;28;20076;-89
2021/05/05 10:55:48;;;;;;;5.47;1.50;;;9.90;79.10;;;;;;4989972;28;19914;-91
2021/05/05 10:58:17;;;;;;;7.30;1.50;;;9.70;79.20;;;;;;5001200;28;20026;-90
2021/05/05 11:00:47;;;;;;;8.50;1.80;;;9.70;79.60;;;;;;5007833;28;20037;-91
2021/05/05 11:03:13;;;;;;;9.55;1.80;;;9.60;79.10;;;;;;5005582;28;20034;-91
2021/05/05 11:05:41;;;;;;;12.97;2.60;;;9.50;79.60;;;;;;5006178;28;20068;-90
2021/05/05 11:08:26;;;;;;;10.98;2.40;;;9.50;79.80;;;;;;5002110;28;20095;-91
2021/05/05 11:10:54;;;;;;;11.97;2.40;;;9.50;80.10;;;;;;5003535;28;20033;-91
2021/05/05 11:13:21;;;;;;;7.65;1.70;;;9.60;79.40;;;;;;5002594;28;20041;-90
2021/05/05 11:15:47;;;;;;;8.07;1.77;;;9.70;79.30;;;;;;5000496;28;20045;-84
2021/05/05 11:18:28;;;;;;;13.77;2.07;;;9.70;79.00;;;;;;5003746;28;20026;-91
2021/05/05 11:20:57;;;;;;;18.07;2.37;;;9.60;79.80;;;;;;5001974;28;20088;-89
2021/05/05 11:23:35;;;;;;;13.07;2.20;;;9.40;80.00;;;;;;5015645;28;20080;-89
2021/05/05 11:26:22;;;;;;;10.83;2.23;;;9.30;81.00;;;;;;4998587;28;20057;-88
2021/05/05 11:29:11;;;;;;;6.47;1.63;;;9.20;82.20;;;;;;5001031;28;20023;-90
2021/05/05 11:31:49;;;;;;;5.88;1.55;;;9.00;82.10;;;;;;5000332;28;20025;-91
2021/05/05 11:34:18;;;;;;;6.40;1.30;;;8.70;82.30;;;;;;5007996;28;20532;-90
2021/05/05 11:37:05;;;;;;;11.38;3.38;;;8.50;83.00;;;;;;5002670;28;20111;-89
2021/05/05 11:39:50;;;;;;;8.63;2.60;;;8.40;83.60;;;;;;4985616;28;20049;-91
2021/05/05 11:42:17;;;;;;;9.93;2.97;;;8.30;83.60;;;;;;5011246;28;20120;-91
2021/05/05 11:44:54;;;;;;;8.00;2.17;;;8.30;84.30;;;;;;5039215;28;20025;-90
2021/05/05 11:47:24;;;;;;;9.70;1.77;;;8.20;84.10;;;;;;5029745;28;20097;-90
2021/05/05 11:49:53;;;;;;;7.13;1.43;;;8.30;84.70;;;;;;5002777;28;20071;-90
2021/05/05 11:52:38;;;;;;;12.07;2.00;;;8.30;84.10;;;;;;5006915;28;20500;-90
2021/05/05 11:55:07;;;;;;;7.70;1.90;;;8.40;84.20;;;;;;5022085;28;20553;-91
2021/05/05 11:57:43;;;;;;;9.25;1.70;;;8.40;84.80;;;;;;5022390;28;20376;-91
2021/05/05 12:00:16;;;;;;;7.60;1.70;;;8.50;85.50;;;;;;5034689;28;20054;-92
2021/05/05 12:02:47;;;;;;;10.40;1.90;;;8.60;85.40;;;;;;5023311;28;20111;-89
2021/05/05 12:05:38;;;;;;;7.30;1.57;;;8.70;85.10;;;;;;5001073;28;20033;-91
2021/05/05 12:08:06;;;;;;;6.60;1.60;;;8.70;85.20;;;;;;4996456;28;20161;-90
2021/05/05 12:10:53;;;;;;;6.23;1.40;;;8.70;84.40;;;;;;5005137;28;20030;-89
2021/05/05 12:13:20;;;;;;;7.37;1.50;;;8.60;84.70;;;;;;5014886;28;20041;-89
2021/05/05 12:15:57;;;;;;;8.97;1.83;;;8.70;85.60;;;;;;5013081;28;20118;-91
2021/05/05 12:18:30;;;;;;;8.77;1.70;;;8.80;84.90;;;;;;5000033;28;20026;-93
2021/05/05 12:21:06;;;;;;;11.63;2.15;;;9.10;85.10;;;;;;5002571;28;20061;-92
2021/05/05 12:23:47;;;;;;;17.10;3.28;;;9.20;85.00;;;;;;5024119;28;20048;-93
2021/05/05 12:26:33;;;;;;;15.20;3.58;;;9.40;85.70;;;;;;5029088;28;20080;-93
2021/05/05 12:29:09;;;;;;;16.08;2.88;;;9.60;85.80;;;;;;5014746;28;20026;-93
2021/05/05 12:31:37;;;;;;;10.35;2.15;;;9.70;83.70;;;;;;5012514;28;20033;-93
2021/05/05 12:34:05;;;;;;;13.80;2.78;;;9.80;83.20;;;;;;5023124;28;20025;-94
2021/05/05 12:36:40;;;;;;;18.27;3.28;;;9.80;82.80;;;;;;5027573;28;20026;-88
2021/05/05 12:39:16;;;;;;;11.43;2.97;;;9.80;82.80;;;;;;5023796;28;20029;-94
2021/05/05 12:41:43;;;;;;;13.40;2.30;;;9.70;83.20;;;;;;5022859;28;20053;-93
2021/05/05 12:44:09;;;;;;;15.60;2.83;;;9.60;83.00;;;;;;5017364;28;20010;-93
2021/05/05 12:49:34;;;;;;;13.98;2.92;;;9.60;83.60;;;;;;5009674;28;20060;-91
2021/05/05 12:52:00;;;;;;;14.02;2.28;;;9.70;83.80;;;;;;5022247;28;20099;-91
2021/05/05 12:54:30;;;;;;;15.07;3.28;;;9.70;83.60;;;;;;5023553;28;20025;-93
2021/05/05 12:56:56;;;;;;;15.27;4.10;;;9.70;83.60;;;;;;5023341;28;20032;-91
2021/05/05 12:59:25;;;;;;;19.15;5.88;;;9.70;83.20;;;;;;5023132;28;20032;-92
2021/05/05 13:02:09;;;;;;;16.00;3.42;;;9.60;83.60;;;;;;5015898;28;20037;-93
2021/05/05 13:04:39;;;;;;;9.95;2.55;;;9.50;83.60;;;;;;5000850;28;20041;-92
2021/05/05 13:07:06;;;;;;;10.30;2.67;;;9.40;83.90;;;;;;5001338;28;20022;-91
2021/05/05 13:09:33;;;;;;;16.40;4.63;;;9.40;83.90;;;;;;5001389;28;20052;-92
2021/05/05 13:12:29;;;;;;;18.60;4.83;;;9.30;84.10;;;;;;5004454;28;20052;-91
2021/05/05 13:17:42;;;;;;;13.73;2.33;;;9.30;84.10;;;;;;5029010;28;20029;-92
2021/05/05 13:32:40;;;;;;;15.23;2.43;;;9.30;82.90;;;;;;5015202;28;20080;-91
2021/05/05 13:35:38;;;;;;;16.70;3.15;;;9.30;82.50;;;;;;4998466;28;20072;-91
2021/05/05 13:38:15;;;;;;;19.27;3.43;;;9.30;82.70;;;;;;5013779;28;20076;-94
2021/05/05 13:40:51;;;;;;;13.60;2.80;;;9.40;82.50;;;;;;5020317;28;20036;-91